CSZ4602 ZBAA-ZYHB
Flight info
| Callsign | CSZ4602 |
|---|---|
| Flight time | N/A |
| Altitude | 35100 |
| Route | DOTRA2G DOTRA B334 TGO G212 RUSBO W203 PIGAM PIG09A |
| Aircraft | A320/M-SDE3FGHIRWY/LB1 |
Departure
| Time | N/A |
|---|---|
| Airport | Beijing Capital International Airport (ZBAA) |
Arrival
| Time | 2026-04-22 17:52 |
|---|---|
| Airport | Harbin Taiping International Airport (ZYHB) |
| Time | Latitude | Longitude | Altitude | Speed | Heading |
|---|---|---|---|---|---|
| 2026-04-22 17:36 | 44.78277 | 124.34520 | 24847 ft | 476 kts | 51° |
| 2026-04-22 17:37 | 44.80212 | 124.38348 | 24619 ft | 474 kts | 51° |
| 2026-04-22 17:37 | 44.82114 | 124.42075 | 24396 ft | 472 kts | 50° |
| 2026-04-22 17:37 | 44.84050 | 124.45840 | 24169 ft | 470 kts | 50° |
| 2026-04-22 17:37 | 44.85966 | 124.49550 | 23944 ft | 469 kts | 50° |
| 2026-04-22 17:38 | 44.87870 | 124.53231 | 23720 ft | 466 kts | 50° |
| 2026-04-22 17:38 | 44.89779 | 124.56917 | 23494 ft | 465 kts | 50° |
| 2026-04-22 17:38 | 44.91665 | 124.60563 | 23270 ft | 463 kts | 50° |
| 2026-04-22 17:38 | 44.93560 | 124.64232 | 23044 ft | 461 kts | 50° |
| 2026-04-22 17:39 | 44.95456 | 124.67909 | 22815 ft | 459 kts | 51° |
| 2026-04-22 17:39 | 44.97303 | 124.71506 | 22593 ft | 458 kts | 51° |
| 2026-04-22 17:39 | 45.01023 | 124.78756 | 22144 ft | 454 kts | 51° |
| 2026-04-22 17:40 | 45.02874 | 124.82360 | 21919 ft | 451 kts | 51° |
| 2026-04-22 17:40 | 45.04724 | 124.85931 | 21695 ft | 449 kts | 51° |
| 2026-04-22 17:40 | 45.06554 | 124.89445 | 21472 ft | 447 kts | 51° |
| 2026-04-22 17:40 | 45.08383 | 124.92952 | 21249 ft | 445 kts | 51° |
| 2026-04-22 17:41 | 45.10220 | 124.96478 | 21023 ft | 443 kts | 51° |
| 2026-04-22 17:41 | 45.12051 | 124.99977 | 20797 ft | 441 kts | 51° |
| 2026-04-22 17:41 | 45.13866 | 125.03444 | 20573 ft | 440 kts | 52° |
| 2026-04-22 17:41 | 45.15691 | 125.06944 | 20347 ft | 438 kts | 52° |
| 2026-04-22 17:42 | 45.17484 | 125.10399 | 20123 ft | 436 kts | 52° |
| 2026-04-22 17:42 | 45.19261 | 125.13830 | 19900 ft | 434 kts | 52° |
| 2026-04-22 17:42 | 45.20448 | 125.16126 | 19750 ft | 432 kts | 52° |
| 2026-04-22 17:42 | 45.22810 | 125.20702 | 19450 ft | 430 kts | 52° |
| 2026-04-22 17:43 | 45.24561 | 125.24098 | 19227 ft | 428 kts | 52° |
| 2026-04-22 17:43 | 45.26332 | 125.27539 | 18999 ft | 426 kts | 52° |
| 2026-04-22 17:43 | 45.28046 | 125.30875 | 18773 ft | 416 kts | 52° |
| 2026-04-22 17:43 | 45.29530 | 125.34318 | 18539 ft | 407 kts | 64° |
| 2026-04-22 17:44 | 45.30542 | 125.38017 | 18320 ft | 397 kts | 71° |
| 2026-04-22 17:44 | 45.31360 | 125.41718 | 18093 ft | 387 kts | 73° |
| 2026-04-22 17:44 | 45.32119 | 125.45308 | 17867 ft | 378 kts | 73° |
| 2026-04-22 17:44 | 45.32870 | 125.48846 | 17642 ft | 370 kts | 73° |
| 2026-04-22 17:45 | 45.33613 | 125.52299 | 17414 ft | 362 kts | 73° |
| 2026-04-22 17:45 | 45.34350 | 125.55688 | 17188 ft | 354 kts | 73° |
| 2026-04-22 17:45 | 45.35071 | 125.58981 | 16954 ft | 347 kts | 73° |
| 2026-04-22 17:45 | 45.35784 | 125.62231 | 16615 ft | 344 kts | 73° |
| 2026-04-22 17:46 | 45.36495 | 125.65474 | 16249 ft | 342 kts | 73° |
| 2026-04-22 17:46 | 45.37197 | 125.68683 | 15888 ft | 340 kts | 73° |
| 2026-04-22 17:46 | 45.37894 | 125.71885 | 15532 ft | 337 kts | 73° |
| 2026-04-22 17:46 | 45.38586 | 125.75057 | 15172 ft | 335 kts | 73° |
| 2026-04-22 17:47 | 45.39274 | 125.78213 | 14813 ft | 333 kts | 73° |
| 2026-04-22 17:47 | 45.39952 | 125.81329 | 14461 ft | 330 kts | 74° |
| 2026-04-22 17:47 | 45.40633 | 125.84457 | 14105 ft | 328 kts | 74° |
| 2026-04-22 17:47 | 45.41298 | 125.87513 | 13757 ft | 326 kts | 74° |
| 2026-04-22 17:48 | 45.41748 | 125.89583 | 13521 ft | 324 kts | 74° |
| 2026-04-22 17:48 | 45.42630 | 125.93649 | 13056 ft | 321 kts | 74° |
| 2026-04-22 17:48 | 45.43283 | 125.96673 | 12727 ft | 318 kts | 74° |
| 2026-04-22 17:48 | 45.43924 | 125.99639 | 12565 ft | 309 kts | 74° |
| 2026-04-22 17:49 | 45.44550 | 126.02536 | 12396 ft | 300 kts | 73° |
| 2026-04-22 17:49 | 45.45417 | 126.05157 | 12060 ft | 299 kts | 49° |
| 2026-04-22 17:49 | 45.46904 | 126.07233 | 11582 ft | 302 kts | 38° |
| 2026-04-22 17:49 | 45.48524 | 126.09121 | 11011 ft | 301 kts | 36° |
| 2026-04-22 17:50 | 45.50163 | 126.10963 | 10432 ft | 296 kts | 35° |
| 2026-04-22 17:50 | 45.51780 | 126.12781 | 8638 ft | 326 kts | 35° |
| 2026-04-22 17:50 | 45.53555 | 126.14769 | 6209 ft | 354 kts | 36° |
| 2026-04-22 17:50 | 45.55481 | 126.16922 | 3842 ft | 362 kts | 37° |
| 2026-04-22 17:51 | 45.57374 | 126.19049 | 2051 ft | 351 kts | 38° |
| 2026-04-22 17:51 | 45.59162 | 126.21177 | 1169 ft | 316 kts | 44° |
| 2026-04-22 17:51 | 45.60639 | 126.23215 | 702 ft | 283 kts | 43° |
| 2026-04-22 17:51 | 45.62090 | 126.24854 | 532 ft | 246 kts | 32° |
| 2026-04-22 17:52 | 45.63212 | 126.26099 | 461 ft | 160 kts | 44° |
| 2026-04-22 17:52 | 45.63502 | 126.26491 | 460 ft | 0 kts | 274° |